sensor_id;sensor_type;location;lat;lon;timestamp;P1;durP1;ratioP1;P2;durP2;ratioP2
14369;SDS011;7268;50.792;0.252;2023-09-08T00:02:25;3.50;;;1.50;;
14369;SDS011;7268;50.792;0.252;2023-09-08T00:04:53;4.00;;;0.82;;
14369;SDS011;7268;50.792;0.252;2023-09-08T00:07:20;3.35;;;1.58;;
14369;SDS011;7268;50.792;0.252;2023-09-08T00:09:47;4.50;;;1.83;;
14369;SDS011;7268;50.792;0.252;2023-09-08T00:12:14;3.05;;;1.55;;
14369;SDS011;7268;50.792;0.252;2023-09-08T00:14:41;3.47;;;1.55;;
14369;SDS011;7268;50.792;0.252;2023-09-08T00:17:08;3.38;;;1.10;;
14369;SDS011;7268;50.792;0.252;2023-09-08T00:19:35;3.35;;;1.25;;
14369;SDS011;7268;50.792;0.252;2023-09-08T00:22:03;2.97;;;1.40;;
14369;SDS011;7268;50.792;0.252;2023-09-08T00:24:32;3.05;;;0.93;;
14369;SDS011;7268;50.792;0.252;2023-09-08T00:27:00;3.28;;;1.67;;
14369;SDS011;7268;50.792;0.252;2023-09-08T00:29:27;4.80;;;1.52;;
14369;SDS011;7268;50.792;0.252;2023-09-08T00:31:54;3.47;;;1.20;;
14369;SDS011;7268;50.792;0.252;2023-09-08T00:34:21;2.85;;;0.85;;
14369;SDS011;7268;50.792;0.252;2023-09-08T00:36:48;3.50;;;1.48;;
14369;SDS011;7268;50.792;0.252;2023-09-08T00:39:15;2.65;;;2.03;;
14369;SDS011;7268;50.792;0.252;2023-09-08T00:41:41;3.88;;;1.75;;
14369;SDS011;7268;50.792;0.252;2023-09-08T00:44:08;2.25;;;1.52;;
14369;SDS011;7268;50.792;0.252;2023-09-08T00:46:35;2.63;;;1.05;;
14369;SDS011;7268;50.792;0.252;2023-09-08T00:49:02;3.03;;;0.93;;
14369;SDS011;7268;50.792;0.252;2023-09-08T00:51:29;2.95;;;1.35;;
14369;SDS011;7268;50.792;0.252;2023-09-08T00:53:57;4.75;;;1.25;;
14369;SDS011;7268;50.792;0.252;2023-09-08T00:56:24;2.60;;;0.93;;
14369;SDS011;7268;50.792;0.252;2023-09-08T00:58:51;2.40;;;1.08;;
14369;SDS011;7268;50.792;0.252;2023-09-08T01:01:18;3.08;;;1.15;;
14369;SDS011;7268;50.792;0.252;2023-09-08T01:03:46;2.88;;;0.90;;
14369;SDS011;7268;50.792;0.252;2023-09-08T01:06:13;2.38;;;0.73;;
14369;SDS011;7268;50.792;0.252;2023-09-08T01:08:40;2.22;;;1.42;;
14369;SDS011;7268;50.792;0.252;2023-09-08T01:11:10;3.25;;;1.38;;
14369;SDS011;7268;50.792;0.252;2023-09-08T01:13:37;3.20;;;1.10;;
14369;SDS011;7268;50.792;0.252;2023-09-08T01:16:04;3.13;;;1.35;;
14369;SDS011;7268;50.792;0.252;2023-09-08T01:18:31;3.10;;;1.58;;
14369;SDS011;7268;50.792;0.252;2023-09-08T01:26:54;3.13;;;0.90;;
14369;SDS011;7268;50.792;0.252;2023-09-08T01:29:22;3.45;;;1.13;;
14369;SDS011;7268;50.792;0.252;2023-09-08T01:31:51;2.15;;;0.98;;
14369;SDS011;7268;50.792;0.252;2023-09-08T01:34:19;2.92;;;2.20;;
14369;SDS011;7268;50.792;0.252;2023-09-08T01:36:46;3.03;;;1.55;;
14369;SDS011;7268;50.792;0.252;2023-09-08T01:39:13;4.45;;;2.30;;
14369;SDS011;7268;50.792;0.252;2023-09-08T01:41:40;3.42;;;1.75;;
14369;SDS011;7268;50.792;0.252;2023-09-08T01:44:07;3.65;;;1.42;;
14369;SDS011;7268;50.792;0.252;2023-09-08T01:46:36;4.10;;;1.48;;
14369;SDS011;7268;50.792;0.252;2023-09-08T01:49:05;3.50;;;1.52;;
14369;SDS011;7268;50.792;0.252;2023-09-08T01:51:32;3.35;;;1.25;;
14369;SDS011;7268;50.792;0.252;2023-09-08T01:53:59;3.10;;;1.45;;
14369;SDS011;7268;50.792;0.252;2023-09-08T01:56:25;7.00;;;1.60;;
14369;SDS011;7268;50.792;0.252;2023-09-08T01:58:52;2.90;;;1.58;;
14369;SDS011;7268;50.792;0.252;2023-09-08T02:01:19;2.90;;;1.45;;
14369;SDS011;7268;50.792;0.252;2023-09-08T02:03:46;3.33;;;1.77;;
14369;SDS011;7268;50.792;0.252;2023-09-08T02:06:13;3.35;;;1.60;;
14369;SDS011;7268;50.792;0.252;2023-09-08T02:08:40;2.40;;;1.15;;
14369;SDS011;7268;50.792;0.252;2023-09-08T02:11:07;3.38;;;1.58;;
14369;SDS011;7268;50.792;0.252;2023-09-08T02:13:34;4.43;;;1.05;;
14369;SDS011;7268;50.792;0.252;2023-09-08T02:16:00;3.60;;;1.75;;
14369;SDS011;7268;50.792;0.252;2023-09-08T02:18:28;3.15;;;1.58;;
14369;SDS011;7268;50.792;0.252;2023-09-08T02:20:55;3.03;;;1.45;;
14369;SDS011;7268;50.792;0.252;2023-09-08T02:23:21;4.35;;;1.60;;
14369;SDS011;7268;50.792;0.252;2023-09-08T02:25:48;3.72;;;1.13;;
14369;SDS011;7268;50.792;0.252;2023-09-08T02:28:15;2.72;;;1.00;;
14369;SDS011;7268;50.792;0.252;2023-09-08T02:30:42;3.30;;;1.38;;
14369;SDS011;7268;50.792;0.252;2023-09-08T02:33:09;2.55;;;1.42;;
14369;SDS011;7268;50.792;0.252;2023-09-08T02:35:36;3.13;;;1.25;;
14369;SDS011;7268;50.792;0.252;2023-09-08T02:38:05;3.33;;;0.85;;
14369;SDS011;7268;50.792;0.252;2023-09-08T02:40:32;2.25;;;1.13;;
14369;SDS011;7268;50.792;0.252;2023-09-08T02:43:01;3.10;;;1.45;;
14369;SDS011;7268;50.792;0.252;2023-09-08T02:45:29;2.88;;;1.00;;
14369;SDS011;7268;50.792;0.252;2023-09-08T02:47:59;3.78;;;1.30;;
14369;SDS011;7268;50.792;0.252;2023-09-08T02:50:26;5.22;;;1.35;;
14369;SDS011;7268;50.792;0.252;2023-09-08T02:52:53;2.90;;;0.60;;
14369;SDS011;7268;50.792;0.252;2023-09-08T02:55:20;2.13;;;0.75;;
14369;SDS011;7268;50.792;0.252;2023-09-08T02:57:46;1.85;;;0.50;;
14369;SDS011;7268;50.792;0.252;2023-09-08T03:00:13;3.17;;;0.95;;
14369;SDS011;7268;50.792;0.252;2023-09-08T03:02:40;4.57;;;0.80;;
14369;SDS011;7268;50.792;0.252;2023-09-08T03:05:07;2.20;;;0.82;;
14369;SDS011;7268;50.792;0.252;2023-09-08T03:07:34;1.80;;;0.63;;
14369;SDS011;7268;50.792;0.252;2023-09-08T03:10:03;2.88;;;1.20;;
14369;SDS011;7268;50.792;0.252;2023-09-08T03:12:31;2.20;;;0.98;;
14369;SDS011;7268;50.792;0.252;2023-09-08T03:14:58;1.75;;;0.63;;
14369;SDS011;7268;50.792;0.252;2023-09-08T03:17:25;2.13;;;0.73;;
14369;SDS011;7268;50.792;0.252;2023-09-08T03:19:51;4.50;;;0.75;;
14369;SDS011;7268;50.792;0.252;2023-09-08T03:22:18;5.50;;;0.63;;
14369;SDS011;7268;50.792;0.252;2023-09-08T03:24:45;2.28;;;0.50;;
14369;SDS011;7268;50.792;0.252;2023-09-08T03:27:12;2.17;;;1.15;;
14369;SDS011;7268;50.792;0.252;2023-09-08T03:29:39;2.38;;;1.20;;
14369;SDS011;7268;50.792;0.252;2023-09-08T03:32:06;1.30;;;0.45;;
14369;SDS011;7268;50.792;0.252;2023-09-08T03:34:33;1.85;;;0.77;;
14369;SDS011;7268;50.792;0.252;2023-09-08T03:37:00;1.83;;;0.73;;
14369;SDS011;7268;50.792;0.252;2023-09-08T03:39:27;1.58;;;0.43;;
14369;SDS011;7268;50.792;0.252;2023-09-08T03:41:54;2.55;;;0.40;;
14369;SDS011;7268;50.792;0.252;2023-09-08T03:44:20;1.73;;;0.77;;
14369;SDS011;7268;50.792;0.252;2023-09-08T03:46:47;2.03;;;0.70;;
14369;SDS011;7268;50.792;0.252;2023-09-08T03:49:14;2.45;;;0.82;;
14369;SDS011;7268;50.792;0.252;2023-09-08T03:51:41;2.45;;;0.65;;
14369;SDS011;7268;50.792;0.252;2023-09-08T03:54:08;1.35;;;0.32;;
14369;SDS011;7268;50.792;0.252;2023-09-08T03:56:35;2.97;;;0.40;;
14369;SDS011;7268;50.792;0.252;2023-09-08T03:59:02;2.72;;;1.08;;
14369;SDS011;7268;50.792;0.252;2023-09-08T04:01:28;2.22;;;0.73;;
14369;SDS011;7268;50.792;0.252;2023-09-08T04:03:55;1.67;;;1.10;;
14369;SDS011;7268;50.792;0.252;2023-09-08T04:06:22;2.53;;;0.85;;
14369;SDS011;7268;50.792;0.252;2023-09-08T04:08:50;1.48;;;0.82;;
14369;SDS011;7268;50.792;0.252;2023-09-08T04:11:17;2.50;;;0.85;;
14369;SDS011;7268;50.792;0.252;2023-09-08T04:13:44;1.50;;;0.63;;
14369;SDS011;7268;50.792;0.252;2023-09-08T04:16:11;1.55;;;0.38;;
14369;SDS011;7268;50.792;0.252;2023-09-08T04:18:38;1.85;;;0.63;;
14369;SDS011;7268;50.792;0.252;2023-09-08T04:21:06;3.30;;;0.50;;
14369;SDS011;7268;50.792;0.252;2023-09-08T04:23:34;1.50;;;0.73;;
14369;SDS011;7268;50.792;0.252;2023-09-08T04:26:01;1.30;;;0.70;;
14369;SDS011;7268;50.792;0.252;2023-09-08T04:28:28;2.03;;;0.45;;
14369;SDS011;7268;50.792;0.252;2023-09-08T04:30:55;1.10;;;0.17;;
14369;SDS011;7268;50.792;0.252;2023-09-08T04:33:23;2.17;;;0.47;;
14369;SDS011;7268;50.792;0.252;2023-09-08T04:35:50;1.92;;;0.70;;
14369;SDS011;7268;50.792;0.252;2023-09-08T04:38:17;1.17;;;0.43;;
14369;SDS011;7268;50.792;0.252;2023-09-08T04:40:47;1.60;;;0.63;;
14369;SDS011;7268;50.792;0.252;2023-09-08T04:43:14;1.27;;;0.60;;
14369;SDS011;7268;50.792;0.252;2023-09-08T04:45:41;1.30;;;0.70;;
14369;SDS011;7268;50.792;0.252;2023-09-08T04:48:08;1.45;;;0.63;;
14369;SDS011;7268;50.792;0.252;2023-09-08T04:50:35;2.90;;;0.82;;
14369;SDS011;7268;50.792;0.252;2023-09-08T04:53:01;1.63;;;0.85;;
14369;SDS011;7268;50.792;0.252;2023-09-08T04:55:28;2.17;;;0.93;;
14369;SDS011;7268;50.792;0.252;2023-09-08T04:57:55;1.50;;;0.30;;
14369;SDS011;7268;50.792;0.252;2023-09-08T05:00:22;1.38;;;0.80;;
14369;SDS011;7268;50.792;0.252;2023-09-08T05:02:49;2.45;;;1.10;;
14369;SDS011;7268;50.792;0.252;2023-09-08T05:05:16;1.40;;;1.02;;
14369;SDS011;7268;50.792;0.252;2023-09-08T05:07:43;2.05;;;0.82;;
14369;SDS011;7268;50.792;0.252;2023-09-08T05:10:11;2.40;;;0.98;;
14369;SDS011;7268;50.792;0.252;2023-09-08T05:12:38;2.42;;;0.50;;
14369;SDS011;7268;50.792;0.252;2023-09-08T05:15:05;2.60;;;0.85;;
14369;SDS011;7268;50.792;0.252;2023-09-08T05:17:36;1.40;;;0.75;;
14369;SDS011;7268;50.792;0.252;2023-09-08T05:20:04;1.65;;;0.88;;
14369;SDS011;7268;50.792;0.252;2023-09-08T05:22:31;2.22;;;0.85;;
14369;SDS011;7268;50.792;0.252;2023-09-08T05:24:58;1.85;;;0.85;;
14369;SDS011;7268;50.792;0.252;2023-09-08T05:27:25;2.10;;;0.60;;
14369;SDS011;7268;50.792;0.252;2023-09-08T05:29:51;1.77;;;0.52;;
14369;SDS011;7268;50.792;0.252;2023-09-08T05:32:18;2.25;;;0.57;;
14369;SDS011;7268;50.792;0.252;2023-09-08T05:34:45;2.67;;;1.02;;
14369;SDS011;7268;50.792;0.252;2023-09-08T05:37:12;1.75;;;0.45;;
14369;SDS011;7268;50.792;0.252;2023-09-08T05:39:39;1.40;;;0.50;;
14369;SDS011;7268;50.792;0.252;2023-09-08T05:42:07;2.38;;;0.55;;
14369;SDS011;7268;50.792;0.252;2023-09-08T05:44:34;1.35;;;0.40;;
14369;SDS011;7268;50.792;0.252;2023-09-08T05:47:01;3.33;;;1.42;;
14369;SDS011;7268;50.792;0.252;2023-09-08T05:49:29;1.75;;;0.57;;
14369;SDS011;7268;50.792;0.252;2023-09-08T05:51:56;2.60;;;0.50;;
14369;SDS011;7268;50.792;0.252;2023-09-08T05:54:23;3.17;;;0.77;;
14369;SDS011;7268;50.792;0.252;2023-09-08T05:56:49;2.33;;;0.77;;
14369;SDS011;7268;50.792;0.252;2023-09-08T05:59:16;1.55;;;0.65;;
14369;SDS011;7268;50.792;0.252;2023-09-08T06:01:43;1.70;;;1.27;;
14369;SDS011;7268;50.792;0.252;2023-09-08T06:04:10;1.60;;;0.50;;
14369;SDS011;7268;50.792;0.252;2023-09-08T06:06:37;1.70;;;0.52;;
14369;SDS011;7268;50.792;0.252;2023-09-08T06:09:05;1.50;;;0.43;;
14369;SDS011;7268;50.792;0.252;2023-09-08T06:11:34;1.52;;;0.50;;
14369;SDS011;7268;50.792;0.252;2023-09-08T06:14:00;1.83;;;0.43;;
14369;SDS011;7268;50.792;0.252;2023-09-08T06:16:27;1.35;;;0.57;;
14369;SDS011;7268;50.792;0.252;2023-09-08T06:18:54;3.17;;;0.60;;
14369;SDS011;7268;50.792;0.252;2023-09-08T06:21:21;2.15;;;1.17;;
14369;SDS011;7268;50.792;0.252;2023-09-08T06:23:48;4.10;;;0.98;;
14369;SDS011;7268;50.792;0.252;2023-09-08T06:26:15;2.67;;;0.75;;
14369;SDS011;7268;50.792;0.252;2023-09-08T06:28:42;1.83;;;0.93;;
14369;SDS011;7268;50.792;0.252;2023-09-08T06:31:10;1.00;;;0.40;;
14369;SDS011;7268;50.792;0.252;2023-09-08T06:33:37;1.85;;;0.52;;
14369;SDS011;7268;50.792;0.252;2023-09-08T06:36:04;2.78;;;1.15;;
14369;SDS011;7268;50.792;0.252;2023-09-08T06:38:31;1.73;;;0.82;;
14369;SDS011;7268;50.792;0.252;2023-09-08T06:40:59;2.35;;;0.47;;
14369;SDS011;7268;50.792;0.252;2023-09-08T06:43:27;3.47;;;0.55;;
14369;SDS011;7268;50.792;0.252;2023-09-08T06:45:53;1.42;;;0.50;;
14369;SDS011;7268;50.792;0.252;2023-09-08T06:48:20;2.10;;;0.82;;
14369;SDS011;7268;50.792;0.252;2023-09-08T06:50:47;2.38;;;1.00;;
14369;SDS011;7268;50.792;0.252;2023-09-08T06:53:14;2.85;;;1.55;;
14369;SDS011;7268;50.792;0.252;2023-09-08T06:55:41;1.80;;;0.85;;
14369;SDS011;7268;50.792;0.252;2023-09-08T06:58:11;3.33;;;0.38;;
14369;SDS011;7268;50.792;0.252;2023-09-08T07:00:38;1.88;;;0.95;;
14369;SDS011;7268;50.792;0.252;2023-09-08T07:03:06;3.08;;;0.52;;
14369;SDS011;7268;50.792;0.252;2023-09-08T07:05:35;4.40;;;1.05;;
14369;SDS011;7268;50.792;0.252;2023-09-08T07:08:01;2.97;;;1.02;;
14369;SDS011;7268;50.792;0.252;2023-09-08T07:10:28;2.70;;;1.20;;
14369;SDS011;7268;50.792;0.252;2023-09-08T07:12:55;2.97;;;0.52;;
14369;SDS011;7268;50.792;0.252;2023-09-08T07:15:22;1.75;;;0.63;;
14369;SDS011;7268;50.792;0.252;2023-09-08T07:17:49;2.67;;;0.55;;
14369;SDS011;7268;50.792;0.252;2023-09-08T07:20:16;1.48;;;0.30;;
14369;SDS011;7268;50.792;0.252;2023-09-08T07:22:44;4.53;;;0.90;;
14369;SDS011;7268;50.792;0.252;2023-09-08T07:25:11;1.83;;;0.80;;
14369;SDS011;7268;50.792;0.252;2023-09-08T07:27:38;2.22;;;0.60;;
14369;SDS011;7268;50.792;0.252;2023-09-08T07:30:05;2.35;;;0.30;;
14369;SDS011;7268;50.792;0.252;2023-09-08T07:32:32;1.77;;;0.70;;
14369;SDS011;7268;50.792;0.252;2023-09-08T07:34:59;3.47;;;0.52;;
14369;SDS011;7268;50.792;0.252;2023-09-08T07:39:53;1.20;;;0.35;;
14369;SDS011;7268;50.792;0.252;2023-09-08T07:42:20;2.65;;;0.50;;
14369;SDS011;7268;50.792;0.252;2023-09-08T07:47:13;2.90;;;0.88;;
14369;SDS011;7268;50.792;0.252;2023-09-08T07:49:45;1.50;;;0.20;;
14369;SDS011;7268;50.792;0.252;2023-09-08T07:52:15;2.80;;;1.08;;
14369;SDS011;7268;50.792;0.252;2023-09-08T07:54:42;3.70;;;1.63;;
14369;SDS011;7268;50.792;0.252;2023-09-08T07:59:36;4.68;;;1.52;;
14369;SDS011;7268;50.792;0.252;2023-09-08T08:02:03;4.43;;;1.42;;
14369;SDS011;7268;50.792;0.252;2023-09-08T08:04:30;2.35;;;0.93;;
14369;SDS011;7268;50.792;0.252;2023-09-08T08:09:24;3.05;;;1.15;;
14369;SDS011;7268;50.792;0.252;2023-09-08T08:11:51;4.93;;;1.85;;
14369;SDS011;7268;50.792;0.252;2023-09-08T08:14:18;5.25;;;1.13;;
14369;SDS011;7268;50.792;0.252;2023-09-08T08:16:44;3.78;;;1.92;;
14369;SDS011;7268;50.792;0.252;2023-09-08T08:19:11;4.07;;;1.52;;
14369;SDS011;7268;50.792;0.252;2023-09-08T08:21:38;11.00;;;1.63;;
14369;SDS011;7268;50.792;0.252;2023-09-08T08:24:08;2.80;;;0.88;;
14369;SDS011;7268;50.792;0.252;2023-09-08T08:29:02;2.35;;;0.77;;
14369;SDS011;7268;50.792;0.252;2023-09-08T08:31:29;2.97;;;0.88;;
14369;SDS011;7268;50.792;0.252;2023-09-08T08:36:23;3.42;;;1.10;;
14369;SDS011;7268;50.792;0.252;2023-09-08T08:38:50;2.85;;;0.82;;
14369;SDS011;7268;50.792;0.252;2023-09-08T08:41:17;2.72;;;1.52;;
14369;SDS011;7268;50.792;0.252;2023-09-08T08:43:44;2.47;;;0.57;;
14369;SDS011;7268;50.792;0.252;2023-09-08T08:46:11;3.65;;;1.13;;
14369;SDS011;7268;50.792;0.252;2023-09-08T08:48:40;2.85;;;0.88;;
14369;SDS011;7268;50.792;0.252;2023-09-08T08:51:08;4.63;;;0.98;;
14369;SDS011;7268;50.792;0.252;2023-09-08T08:53:37;2.33;;;0.68;;
14369;SDS011;7268;50.792;0.252;2023-09-08T08:56:06;2.45;;;0.93;;
14369;SDS011;7268;50.792;0.252;2023-09-08T08:58:35;2.28;;;0.55;;
14369;SDS011;7268;50.792;0.252;2023-09-08T09:01:06;3.55;;;1.50;;
14369;SDS011;7268;50.792;0.252;2023-09-08T09:03:33;4.20;;;1.08;;
14369;SDS011;7268;50.792;0.252;2023-09-08T09:06:04;3.08;;;0.90;;
14369;SDS011;7268;50.792;0.252;2023-09-08T09:08:31;3.03;;;0.63;;
14369;SDS011;7268;50.792;0.252;2023-09-08T09:10:59;4.10;;;1.23;;
14369;SDS011;7268;50.792;0.252;2023-09-08T09:15:53;4.10;;;1.08;;
14369;SDS011;7268;50.792;0.252;2023-09-08T09:18:30;3.92;;;0.50;;
14369;SDS011;7268;50.792;0.252;2023-09-08T09:21:00;3.85;;;0.50;;
14369;SDS011;7268;50.792;0.252;2023-09-08T09:23:28;2.08;;;0.20;;
14369;SDS011;7268;50.792;0.252;2023-09-08T09:25:59;4.25;;;1.15;;
14369;SDS011;7268;50.792;0.252;2023-09-08T09:28:30;2.75;;;0.30;;
14369;SDS011;7268;50.792;0.252;2023-09-08T09:30:57;2.38;;;0.60;;
14369;SDS011;7268;50.792;0.252;2023-09-08T09:33:25;2.20;;;0.22;;
14369;SDS011;7268;50.792;0.252;2023-09-08T09:35:54;2.15;;;0.15;;
14369;SDS011;7268;50.792;0.252;2023-09-08T09:38:21;1.50;;;0.13;;
14369;SDS011;7268;50.792;0.252;2023-09-08T09:40:48;1.40;;;0.63;;
14369;SDS011;7268;50.792;0.252;2023-09-08T09:43:16;2.03;;;0.52;;
14369;SDS011;7268;50.792;0.252;2023-09-08T09:45:44;1.08;;;0.10;;
14369;SDS011;7268;50.792;0.252;2023-09-08T09:48:11;3.70;;;0.43;;
14369;SDS011;7268;50.792;0.252;2023-09-08T09:50:39;2.00;;;0.20;;
14369;SDS011;7268;50.792;0.252;2023-09-08T09:53:08;2.03;;;0.32;;
14369;SDS011;7268;50.792;0.252;2023-09-08T09:55:38;1.80;;;0.17;;
14369;SDS011;7268;50.792;0.252;2023-09-08T09:58:10;1.10;;;0.20;;
14369;SDS011;7268;50.792;0.252;2023-09-08T10:00:37;1.83;;;0.45;;
14369;SDS011;7268;50.792;0.252;2023-09-08T10:03:07;1.60;;;0.13;;
14369;SDS011;7268;50.792;0.252;2023-09-08T10:05:35;2.38;;;0.35;;
14369;SDS011;7268;50.792;0.252;2023-09-08T10:08:03;1.65;;;0.35;;
14369;SDS011;7268;50.792;0.252;2023-09-08T10:10:32;1.30;;;0.13;;
14369;SDS011;7268;50.792;0.252;2023-09-08T10:13:05;2.20;;;0.30;;
14369;SDS011;7268;50.792;0.252;2023-09-08T10:15:33;3.08;;;0.20;;
14369;SDS011;7268;50.792;0.252;2023-09-08T10:18:02;1.73;;;0.30;;
14369;SDS011;7268;50.792;0.252;2023-09-08T10:20:31;2.40;;;0.20;;
14369;SDS011;7268;50.792;0.252;2023-09-08T10:23:47;3.83;;;0.40;;
14369;SDS011;7268;50.792;0.252;2023-09-08T10:25:59;1.73;;;0.43;;
14369;SDS011;7268;50.792;0.252;2023-09-08T10:28:30;2.45;;;0.28;;
14369;SDS011;7268;50.792;0.252;2023-09-08T10:31:00;3.60;;;0.68;;
14369;SDS011;7268;50.792;0.252;2023-09-08T10:33:28;2.08;;;0.45;;
14369;SDS011;7268;50.792;0.252;2023-09-08T10:35:58;1.98;;;0.20;;
14369;SDS011;7268;50.792;0.252;2023-09-08T10:38:32;2.28;;;0.38;;
14369;SDS011;7268;50.792;0.252;2023-09-08T10:43:44;1.20;;;0.28;;
14369;SDS011;7268;50.792;0.252;2023-09-08T10:46:21;3.22;;;0.20;;
14369;SDS011;7268;50.792;0.252;2023-09-08T10:48:49;2.00;;;0.32;;
14369;SDS011;7268;50.792;0.252;2023-09-08T10:51:18;1.13;;;0.10;;
14369;SDS011;7268;50.792;0.252;2023-09-08T10:53:47;1.40;;;0.15;;
14369;SDS011;7268;50.792;0.252;2023-09-08T10:56:16;3.15;;;0.13;;
14369;SDS011;7268;50.792;0.252;2023-09-08T10:58:48;2.75;;;0.50;;
14369;SDS011;7268;50.792;0.252;2023-09-08T11:01:18;2.00;;;0.17;;
14369;SDS011;7268;50.792;0.252;2023-09-08T11:03:49;1.00;;;0.28;;
14369;SDS011;7268;50.792;0.252;2023-09-08T11:06:18;2.17;;;0.50;;
14369;SDS011;7268;50.792;0.252;2023-09-08T11:08:46;1.70;;;0.25;;
14369;SDS011;7268;50.792;0.252;2023-09-08T11:11:15;1.52;;;0.55;;
14369;SDS011;7268;50.792;0.252;2023-09-08T11:13:43;2.60;;;0.40;;
14369;SDS011;7268;50.792;0.252;2023-09-08T11:16:14;1.13;;;0.20;;
14369;SDS011;7268;50.792;0.252;2023-09-08T11:18:41;3.55;;;0.35;;
14369;SDS011;7268;50.792;0.252;2023-09-08T11:21:09;1.88;;;0.43;;
14369;SDS011;7268;50.792;0.252;2023-09-08T11:23:37;2.10;;;0.28;;
14369;SDS011;7268;50.792;0.252;2023-09-08T11:26:05;1.17;;;0.32;;
14369;SDS011;7268;50.792;0.252;2023-09-08T11:28:35;2.00;;;0.20;;
14369;SDS011;7268;50.792;0.252;2023-09-08T11:31:04;1.40;;;0.20;;
14369;SDS011;7268;50.792;0.252;2023-09-08T11:33:33;3.30;;;0.22;;
14369;SDS011;7268;50.792;0.252;2023-09-08T11:36:11;2.00;;;0.30;;
14369;SDS011;7268;50.792;0.252;2023-09-08T11:38:41;1.90;;;0.28;;
14369;SDS011;7268;50.792;0.252;2023-09-08T11:41:09;2.80;;;0.30;;
14369;SDS011;7268;50.792;0.252;2023-09-08T11:43:36;2.13;;;0.30;;
14369;SDS011;7268;50.792;0.252;2023-09-08T11:46:03;2.30;;;0.57;;
14369;SDS011;7268;50.792;0.252;2023-09-08T11:48:32;3.13;;;0.45;;
14369;SDS011;7268;50.792;0.252;2023-09-08T11:51:00;2.05;;;0.60;;
14369;SDS011;7268;50.792;0.252;2023-09-08T11:55:54;3.65;;;0.35;;
14369;SDS011;7268;50.792;0.252;2023-09-08T11:58:21;2.00;;;0.55;;
14369;SDS011;7268;50.792;0.252;2023-09-08T12:00:49;1.40;;;0.22;;
14369;SDS011;7268;50.792;0.252;2023-09-08T12:03:16;4.30;;;0.82;;
14369;SDS011;7268;50.792;0.252;2023-09-08T12:05:44;2.17;;;0.45;;
14369;SDS011;7268;50.792;0.252;2023-09-08T12:08:16;4.75;;;0.88;;
14369;SDS011;7268;50.792;0.252;2023-09-08T12:10:43;1.55;;;0.52;;
14369;SDS011;7268;50.792;0.252;2023-09-08T12:13:10;2.15;;;0.70;;
14369;SDS011;7268;50.792;0.252;2023-09-08T12:15:41;1.45;;;0.30;;
14369;SDS011;7268;50.792;0.252;2023-09-08T12:18:11;2.30;;;0.30;;
14369;SDS011;7268;50.792;0.252;2023-09-08T12:20:42;2.42;;;0.32;;
14369;SDS011;7268;50.792;0.252;2023-09-08T12:23:19;2.38;;;0.60;;
14369;SDS011;7268;50.792;0.252;2023-09-08T12:25:48;1.50;;;0.35;;
14369;SDS011;7268;50.792;0.252;2023-09-08T12:28:17;1.90;;;0.82;;
14369;SDS011;7268;50.792;0.252;2023-09-08T12:30:45;2.42;;;0.63;;
14369;SDS011;7268;50.792;0.252;2023-09-08T12:33:13;3.35;;;0.50;;
14369;SDS011;7268;50.792;0.252;2023-09-08T12:35:46;2.50;;;0.63;;
14369;SDS011;7268;50.792;0.252;2023-09-08T12:38:19;3.58;;;0.95;;
14369;SDS011;7268;50.792;0.252;2023-09-08T12:43:14;1.88;;;0.43;;
14369;SDS011;7268;50.792;0.252;2023-09-08T12:45:52;2.15;;;0.70;;
14369;SDS011;7268;50.792;0.252;2023-09-08T12:48:20;1.77;;;0.55;;
14369;SDS011;7268;50.792;0.252;2023-09-08T12:50:47;2.17;;;0.63;;
14369;SDS011;7268;50.792;0.252;2023-09-08T12:53:16;3.58;;;0.70;;
14369;SDS011;7268;50.792;0.252;2023-09-08T12:55:47;1.88;;;0.50;;
14369;SDS011;7268;50.792;0.252;2023-09-08T12:58:14;1.88;;;0.88;;
14369;SDS011;7268;50.792;0.252;2023-09-08T13:00:42;2.08;;;0.47;;
14369;SDS011;7268;50.792;0.252;2023-09-08T13:03:10;2.03;;;0.63;;
14369;SDS011;7268;50.792;0.252;2023-09-08T13:05:37;3.03;;;0.85;;
14369;SDS011;7268;50.792;0.252;2023-09-08T13:08:05;2.63;;;0.70;;
14369;SDS011;7268;50.792;0.252;2023-09-08T13:10:32;2.60;;;0.73;;
14369;SDS011;7268;50.792;0.252;2023-09-08T13:12:59;3.00;;;0.63;;
14369;SDS011;7268;50.792;0.252;2023-09-08T13:15:26;5.88;;;1.10;;
14369;SDS011;7268;50.792;0.252;2023-09-08T13:20:21;4.25;;;1.15;;
14369;SDS011;7268;50.792;0.252;2023-09-08T13:25:14;1.90;;;0.80;;
14369;SDS011;7268;50.792;0.252;2023-09-08T13:27:41;2.63;;;0.65;;
14369;SDS011;7268;50.792;0.252;2023-09-08T13:32:36;1.92;;;0.82;;
14369;SDS011;7268;50.792;0.252;2023-09-08T13:35:04;2.67;;;0.40;;
14369;SDS011;7268;50.792;0.252;2023-09-08T13:37:32;2.85;;;0.90;;
14369;SDS011;7268;50.792;0.252;2023-09-08T13:40:01;3.17;;;0.75;;
14369;SDS011;7268;50.792;0.252;2023-09-08T13:42:30;2.63;;;0.57;;
14369;SDS011;7268;50.792;0.252;2023-09-08T13:44:58;3.08;;;0.68;;
14369;SDS011;7268;50.792;0.252;2023-09-08T13:47:26;2.75;;;0.75;;
14369;SDS011;7268;50.792;0.252;2023-09-08T13:49:53;2.05;;;1.10;;
14369;SDS011;7268;50.792;0.252;2023-09-08T13:52:23;1.83;;;0.90;;
14369;SDS011;7268;50.792;0.252;2023-09-08T13:54:55;2.78;;;0.57;;
14369;SDS011;7268;50.792;0.252;2023-09-08T13:57:25;3.50;;;0.57;;
14369;SDS011;7268;50.792;0.252;2023-09-08T13:59:54;1.40;;;0.60;;
14369;SDS011;7268;50.792;0.252;2023-09-08T14:02:23;3.70;;;0.70;;
14369;SDS011;7268;50.792;0.252;2023-09-08T14:04:53;2.15;;;0.73;;
14369;SDS011;7268;50.792;0.252;2023-09-08T14:07:24;1.90;;;0.82;;
14369;SDS011;7268;50.792;0.252;2023-09-08T14:09:57;2.42;;;0.52;;
14369;SDS011;7268;50.792;0.252;2023-09-08T14:12:44;2.65;;;0.80;;
14369;SDS011;7268;50.792;0.252;2023-09-08T14:15:11;2.88;;;1.08;;
14369;SDS011;7268;50.792;0.252;2023-09-08T14:17:41;2.00;;;0.80;;
14369;SDS011;7268;50.792;0.252;2023-09-08T14:22:35;1.85;;;0.20;;
14369;SDS011;7268;50.792;0.252;2023-09-08T14:25:02;2.33;;;0.45;;
14369;SDS011;7268;50.792;0.252;2023-09-08T14:27:30;1.73;;;0.45;;
14369;SDS011;7268;50.792;0.252;2023-09-08T14:32:23;2.10;;;0.70;;
14369;SDS011;7268;50.792;0.252;2023-09-08T14:37:17;4.38;;;0.88;;
14369;SDS011;7268;50.792;0.252;2023-09-08T14:39:43;4.50;;;0.80;;
14369;SDS011;7268;50.792;0.252;2023-09-08T14:42:11;2.20;;;0.88;;
14369;SDS011;7268;50.792;0.252;2023-09-08T14:44:40;3.45;;;0.77;;
14369;SDS011;7268;50.792;0.252;2023-09-08T14:47:07;3.92;;;0.80;;
14369;SDS011;7268;50.792;0.252;2023-09-08T14:49:35;2.35;;;0.85;;
14369;SDS011;7268;50.792;0.252;2023-09-08T14:52:02;4.93;;;0.50;;
14369;SDS011;7268;50.792;0.252;2023-09-08T14:56:56;2.70;;;0.60;;
14369;SDS011;7268;50.792;0.252;2023-09-08T14:59:22;1.42;;;0.40;;
14369;SDS011;7268;50.792;0.252;2023-09-08T15:04:18;2.83;;;0.45;;
14369;SDS011;7268;50.792;0.252;2023-09-08T15:06:44;3.75;;;0.73;;
14369;SDS011;7268;50.792;0.252;2023-09-08T15:09:11;2.60;;;0.77;;
14369;SDS011;7268;50.792;0.252;2023-09-08T15:11:38;2.45;;;0.93;;
14369;SDS011;7268;50.792;0.252;2023-09-08T15:14:05;3.17;;;0.80;;
14369;SDS011;7268;50.792;0.252;2023-09-08T15:16:32;2.78;;;1.08;;
14369;SDS011;7268;50.792;0.252;2023-09-08T15:18:59;2.20;;;0.63;;
14369;SDS011;7268;50.792;0.252;2023-09-08T15:21:26;2.22;;;0.43;;
14369;SDS011;7268;50.792;0.252;2023-09-08T15:23:56;2.55;;;1.17;;
14369;SDS011;7268;50.792;0.252;2023-09-08T15:26:23;2.72;;;0.57;;
14369;SDS011;7268;50.792;0.252;2023-09-08T15:28:50;2.33;;;0.65;;
14369;SDS011;7268;50.792;0.252;2023-09-08T15:31:17;4.72;;;0.52;;
14369;SDS011;7268;50.792;0.252;2023-09-08T15:33:44;3.72;;;0.80;;
14369;SDS011;7268;50.792;0.252;2023-09-08T15:36:11;5.60;;;1.25;;
14369;SDS011;7268;50.792;0.252;2023-09-08T15:38:38;1.75;;;0.57;;
14369;SDS011;7268;50.792;0.252;2023-09-08T15:43:44;3.30;;;0.80;;
14369;SDS011;7268;50.792;0.252;2023-09-08T15:46:13;4.25;;;0.90;;
14369;SDS011;7268;50.792;0.252;2023-09-08T15:48:40;3.00;;;0.93;;
14369;SDS011;7268;50.792;0.252;2023-09-08T15:51:07;1.80;;;0.75;;
14369;SDS011;7268;50.792;0.252;2023-09-08T15:53:36;4.82;;;0.80;;
14369;SDS011;7268;50.792;0.252;2023-09-08T15:56:04;2.88;;;0.68;;
14369;SDS011;7268;50.792;0.252;2023-09-08T15:58:32;1.70;;;0.40;;